sensor_id;sensor_type;location;lat;lon;timestamp;P1;durP1;ratioP1;P2;durP2;ratioP2
8086;SDS011;4086;54.412;9.980;2022-09-30T00:00:28;7.83;;;7.03;;
8086;SDS011;4086;54.412;9.980;2022-09-30T00:02:55;9.03;;;7.17;;
8086;SDS011;4086;54.412;9.980;2022-09-30T00:05:21;7.10;;;6.40;;
8086;SDS011;4086;54.412;9.980;2022-09-30T00:07:48;7.97;;;6.67;;
8086;SDS011;4086;54.412;9.980;2022-09-30T00:10:14;6.73;;;6.03;;
8086;SDS011;4086;54.412;9.980;2022-09-30T00:12:41;9.10;;;7.30;;
8086;SDS011;4086;54.412;9.980;2022-09-30T00:15:09;7.33;;;6.53;;
8086;SDS011;4086;54.412;9.980;2022-09-30T00:17:35;8.50;;;7.10;;
8086;SDS011;4086;54.412;9.980;2022-09-30T00:20:02;12.23;;;7.73;;
8086;SDS011;4086;54.412;9.980;2022-09-30T00:22:29;7.13;;;6.33;;
8086;SDS011;4086;54.412;9.980;2022-09-30T00:24:55;7.17;;;6.47;;
8086;SDS011;4086;54.412;9.980;2022-09-30T00:27:22;8.90;;;7.23;;
8086;SDS011;4086;54.412;9.980;2022-09-30T00:29:48;7.97;;;7.17;;
8086;SDS011;4086;54.412;9.980;2022-09-30T00:32:16;9.50;;;6.67;;
8086;SDS011;4086;54.412;9.980;2022-09-30T00:34:43;8.53;;;6.43;;
8086;SDS011;4086;54.412;9.980;2022-09-30T00:37:09;7.27;;;6.47;;
8086;SDS011;4086;54.412;9.980;2022-09-30T00:39:39;8.40;;;6.70;;
8086;SDS011;4086;54.412;9.980;2022-09-30T00:42:08;6.90;;;6.20;;
8086;SDS011;4086;54.412;9.980;2022-09-30T00:44:42;7.97;;;6.30;;
8086;SDS011;4086;54.412;9.980;2022-09-30T00:47:17;9.13;;;6.53;;
8086;SDS011;4086;54.412;9.980;2022-09-30T00:50:18;8.30;;;6.57;;
8086;SDS011;4086;54.412;9.980;2022-09-30T00:52:49;7.37;;;6.67;;
8086;SDS011;4086;54.412;9.980;2022-09-30T00:55:20;8.03;;;6.87;;
8086;SDS011;4086;54.412;9.980;2022-09-30T00:57:50;6.67;;;5.87;;
8086;SDS011;4086;54.412;9.980;2022-09-30T01:00:17;5.20;;;4.70;;
8086;SDS011;4086;54.412;9.980;2022-09-30T01:02:44;8.03;;;7.23;;
8086;SDS011;4086;54.412;9.980;2022-09-30T01:05:11;7.13;;;6.43;;
8086;SDS011;4086;54.412;9.980;2022-09-30T01:07:38;7.17;;;6.43;;
8086;SDS011;4086;54.412;9.980;2022-09-30T01:10:05;6.83;;;6.13;;
8086;SDS011;4086;54.412;9.980;2022-09-30T01:12:32;9.13;;;6.43;;
8086;SDS011;4086;54.412;9.980;2022-09-30T01:14:58;7.63;;;6.80;;
8086;SDS011;4086;54.412;9.980;2022-09-30T01:17:29;8.57;;;6.93;;
8086;SDS011;4086;54.412;9.980;2022-09-30T01:26:35;10.37;;;6.93;;
8086;SDS011;4086;54.412;9.980;2022-09-30T01:29:24;10.97;;;7.70;;
8086;SDS011;4086;54.412;9.980;2022-09-30T01:32:02;10.13;;;7.57;;
8086;SDS011;4086;54.412;9.980;2022-09-30T01:34:33;11.73;;;7.47;;
8086;SDS011;4086;54.412;9.980;2022-09-30T01:37:08;8.10;;;6.87;;
8086;SDS011;4086;54.412;9.980;2022-09-30T01:39:41;9.70;;;8.47;;
8086;SDS011;4086;54.412;9.980;2022-09-30T01:42:17;8.87;;;7.73;;
8086;SDS011;4086;54.412;9.980;2022-09-30T01:44:47;8.53;;;7.63;;
8086;SDS011;4086;54.412;9.980;2022-09-30T01:47:20;11.23;;;8.10;;
8086;SDS011;4086;54.412;9.980;2022-09-30T01:49:50;10.83;;;7.47;;
8086;SDS011;4086;54.412;9.980;2022-09-30T01:52:21;10.53;;;8.67;;
8086;SDS011;4086;54.412;9.980;2022-09-30T01:54:51;12.47;;;8.67;;
8086;SDS011;4086;54.412;9.980;2022-09-30T01:57:23;9.40;;;8.00;;
8086;SDS011;4086;54.412;9.980;2022-09-30T01:59:53;10.07;;;8.47;;
8086;SDS011;4086;54.412;9.980;2022-09-30T02:02:23;10.33;;;8.20;;
8086;SDS011;4086;54.412;9.980;2022-09-30T02:04:52;9.77;;;8.10;;
8086;SDS011;4086;54.412;9.980;2022-09-30T02:07:22;9.93;;;8.40;;
8086;SDS011;4086;54.412;9.980;2022-09-30T02:09:52;8.20;;;6.93;;
8086;SDS011;4086;54.412;9.980;2022-09-30T02:12:21;9.30;;;8.23;;
8086;SDS011;4086;54.412;9.980;2022-09-30T02:14:50;9.00;;;7.87;;
8086;SDS011;4086;54.412;9.980;2022-09-30T02:17:21;14.63;;;9.27;;
8086;SDS011;4086;54.412;9.980;2022-09-30T02:19:51;9.73;;;8.00;;
8086;SDS011;4086;54.412;9.980;2022-09-30T02:22:20;9.77;;;8.20;;
8086;SDS011;4086;54.412;9.980;2022-09-30T02:24:51;11.50;;;8.53;;
8086;SDS011;4086;54.412;9.980;2022-09-30T02:27:20;9.27;;;7.93;;
8086;SDS011;4086;54.412;9.980;2022-09-30T02:29:50;10.60;;;9.07;;
8086;SDS011;4086;54.412;9.980;2022-09-30T02:32:19;10.27;;;8.57;;
8086;SDS011;4086;54.412;9.980;2022-09-30T02:34:49;10.50;;;8.80;;
8086;SDS011;4086;54.412;9.980;2022-09-30T02:37:18;9.90;;;8.43;;
8086;SDS011;4086;54.412;9.980;2022-09-30T02:39:46;11.27;;;9.10;;
8086;SDS011;4086;54.412;9.980;2022-09-30T02:42:16;11.53;;;9.53;;
8086;SDS011;4086;54.412;9.980;2022-09-30T02:44:44;12.37;;;9.87;;
8086;SDS011;4086;54.412;9.980;2022-09-30T02:47:11;11.63;;;9.43;;
8086;SDS011;4086;54.412;9.980;2022-09-30T02:49:42;12.23;;;9.13;;
8086;SDS011;4086;54.412;9.980;2022-09-30T02:52:14;13.00;;;10.50;;
8086;SDS011;4086;54.412;9.980;2022-09-30T02:54:47;11.73;;;9.27;;
8086;SDS011;4086;54.412;9.980;2022-09-30T02:57:21;15.23;;;11.20;;
8086;SDS011;4086;54.412;9.980;2022-09-30T02:59:51;11.73;;;9.80;;
8086;SDS011;4086;54.412;9.980;2022-09-30T03:02:18;14.17;;;9.67;;
8086;SDS011;4086;54.412;9.980;2022-09-30T03:04:45;12.77;;;10.40;;
8086;SDS011;4086;54.412;9.980;2022-09-30T03:07:14;15.23;;;11.10;;
8086;SDS011;4086;54.412;9.980;2022-09-30T03:09:40;13.80;;;10.60;;
8086;SDS011;4086;54.412;9.980;2022-09-30T03:12:09;13.10;;;10.27;;
8086;SDS011;4086;54.412;9.980;2022-09-30T03:14:49;12.80;;;10.43;;
8086;SDS011;4086;54.412;9.980;2022-09-30T03:20:27;13.80;;;10.40;;
8086;SDS011;4086;54.412;9.980;2022-09-30T03:23:10;13.23;;;10.60;;
8086;SDS011;4086;54.412;9.980;2022-09-30T03:25:46;11.37;;;9.57;;
8086;SDS011;4086;54.412;9.980;2022-09-30T03:28:18;13.07;;;10.43;;
8086;SDS011;4086;54.412;9.980;2022-09-30T03:30:49;14.23;;;11.17;;
8086;SDS011;4086;54.412;9.980;2022-09-30T03:33:20;12.67;;;10.40;;
8086;SDS011;4086;54.412;9.980;2022-09-30T03:35:51;14.77;;;10.97;;
8086;SDS011;4086;54.412;9.980;2022-09-30T03:38:26;13.53;;;9.97;;
8086;SDS011;4086;54.412;9.980;2022-09-30T03:41:02;12.03;;;9.87;;
8086;SDS011;4086;54.412;9.980;2022-09-30T03:43:33;11.83;;;9.90;;
8086;SDS011;4086;54.412;9.980;2022-09-30T03:46:01;13.10;;;9.63;;
8086;SDS011;4086;54.412;9.980;2022-09-30T03:48:31;11.90;;;10.23;;
8086;SDS011;4086;54.412;9.980;2022-09-30T03:50:58;13.70;;;9.83;;
8086;SDS011;4086;54.412;9.980;2022-09-30T03:53:26;11.90;;;9.93;;
8086;SDS011;4086;54.412;9.980;2022-09-30T03:55:53;12.27;;;9.37;;
8086;SDS011;4086;54.412;9.980;2022-09-30T03:58:20;11.87;;;9.47;;
8086;SDS011;4086;54.412;9.980;2022-09-30T04:00:48;11.00;;;9.30;;
8086;SDS011;4086;54.412;9.980;2022-09-30T04:03:16;12.23;;;9.17;;
8086;SDS011;4086;54.412;9.980;2022-09-30T04:05:43;12.20;;;9.23;;
8086;SDS011;4086;54.412;9.980;2022-09-30T04:08:10;12.60;;;9.37;;
8086;SDS011;4086;54.412;9.980;2022-09-30T04:10:39;11.53;;;9.53;;
8086;SDS011;4086;54.412;9.980;2022-09-30T04:13:06;11.37;;;9.50;;
8086;SDS011;4086;54.412;9.980;2022-09-30T04:15:32;13.90;;;10.73;;
8086;SDS011;4086;54.412;9.980;2022-09-30T04:17:59;12.00;;;10.23;;
8086;SDS011;4086;54.412;9.980;2022-09-30T04:20:26;14.30;;;10.60;;
8086;SDS011;4086;54.412;9.980;2022-09-30T04:22:52;14.17;;;10.40;;
8086;SDS011;4086;54.412;9.980;2022-09-30T04:25:22;12.30;;;10.57;;
8086;SDS011;4086;54.412;9.980;2022-09-30T04:27:49;13.80;;;10.57;;
8086;SDS011;4086;54.412;9.980;2022-09-30T04:30:16;12.40;;;10.30;;
8086;SDS011;4086;54.412;9.980;2022-09-30T04:32:43;14.60;;;10.70;;
8086;SDS011;4086;54.412;9.980;2022-09-30T04:35:10;12.60;;;10.93;;
8086;SDS011;4086;54.412;9.980;2022-09-30T04:37:39;16.53;;;10.90;;
8086;SDS011;4086;54.412;9.980;2022-09-30T04:40:07;14.60;;;11.80;;
8086;SDS011;4086;54.412;9.980;2022-09-30T04:42:34;16.93;;;12.17;;
8086;SDS011;4086;54.412;9.980;2022-09-30T04:45:02;13.53;;;11.00;;
8086;SDS011;4086;54.412;9.980;2022-09-30T04:47:29;13.63;;;10.47;;
8086;SDS011;4086;54.412;9.980;2022-09-30T04:49:55;14.47;;;11.50;;
8086;SDS011;4086;54.412;9.980;2022-09-30T04:52:22;12.40;;;10.90;;
8086;SDS011;4086;54.412;9.980;2022-09-30T04:54:48;16.33;;;12.00;;
8086;SDS011;4086;54.412;9.980;2022-09-30T04:57:15;15.23;;;11.77;;
8086;SDS011;4086;54.412;9.980;2022-09-30T04:59:41;14.53;;;11.80;;
8086;SDS011;4086;54.412;9.980;2022-09-30T05:02:10;14.37;;;11.47;;
8086;SDS011;4086;54.412;9.980;2022-09-30T05:04:37;15.87;;;12.50;;
8086;SDS011;4086;54.412;9.980;2022-09-30T05:07:04;13.33;;;10.33;;
8086;SDS011;4086;54.412;9.980;2022-09-30T05:09:32;15.13;;;12.40;;
8086;SDS011;4086;54.412;9.980;2022-09-30T05:11:59;16.50;;;13.00;;
8086;SDS011;4086;54.412;9.980;2022-09-30T05:14:27;15.93;;;13.00;;
8086;SDS011;4086;54.412;9.980;2022-09-30T05:16:54;17.00;;;14.17;;
8086;SDS011;4086;54.412;9.980;2022-09-30T05:19:21;20.63;;;14.83;;
8086;SDS011;4086;54.412;9.980;2022-09-30T05:21:48;19.20;;;13.50;;
8086;SDS011;4086;54.412;9.980;2022-09-30T05:24:16;19.40;;;14.20;;
8086;SDS011;4086;54.412;9.980;2022-09-30T05:26:42;18.60;;;14.37;;
8086;SDS011;4086;54.412;9.980;2022-09-30T05:29:09;17.53;;;14.50;;
8086;SDS011;4086;54.412;9.980;2022-09-30T05:31:36;16.97;;;12.70;;
8086;SDS011;4086;54.412;9.980;2022-09-30T05:34:02;19.93;;;14.80;;
8086;SDS011;4086;54.412;9.980;2022-09-30T05:36:30;16.27;;;12.43;;
8086;SDS011;4086;54.412;9.980;2022-09-30T05:38:57;17.73;;;14.03;;
8086;SDS011;4086;54.412;9.980;2022-09-30T05:41:24;17.83;;;13.97;;
8086;SDS011;4086;54.412;9.980;2022-09-30T05:43:50;19.43;;;14.50;;
8086;SDS011;4086;54.412;9.980;2022-09-30T05:46:17;18.37;;;13.57;;
8086;SDS011;4086;54.412;9.980;2022-09-30T05:48:44;19.33;;;13.83;;
8086;SDS011;4086;54.412;9.980;2022-09-30T05:51:11;19.73;;;14.87;;
8086;SDS011;4086;54.412;9.980;2022-09-30T05:53:39;20.43;;;15.23;;
8086;SDS011;4086;54.412;9.980;2022-09-30T05:56:06;21.13;;;15.23;;
8086;SDS011;4086;54.412;9.980;2022-09-30T05:58:33;18.97;;;14.43;;
8086;SDS011;4086;54.412;9.980;2022-09-30T06:01:02;20.07;;;15.30;;
8086;SDS011;4086;54.412;9.980;2022-09-30T06:03:30;17.30;;;13.33;;
8086;SDS011;4086;54.412;9.980;2022-09-30T06:05:57;20.20;;;15.57;;
8086;SDS011;4086;54.412;9.980;2022-09-30T06:08:23;20.77;;;15.33;;
8086;SDS011;4086;54.412;9.980;2022-09-30T06:10:51;19.63;;;14.57;;
8086;SDS011;4086;54.412;9.980;2022-09-30T06:13:17;19.67;;;14.27;;
8086;SDS011;4086;54.412;9.980;2022-09-30T06:15:53;20.83;;;15.00;;
8086;SDS011;4086;54.412;9.980;2022-09-30T06:18:20;17.37;;;14.50;;
8086;SDS011;4086;54.412;9.980;2022-09-30T06:20:47;21.73;;;15.47;;
8086;SDS011;4086;54.412;9.980;2022-09-30T06:23:13;20.90;;;14.47;;
8086;SDS011;4086;54.412;9.980;2022-09-30T06:25:40;22.30;;;15.67;;
8086;SDS011;4086;54.412;9.980;2022-09-30T06:28:09;18.40;;;14.43;;
8086;SDS011;4086;54.412;9.980;2022-09-30T06:30:35;20.47;;;15.27;;
8086;SDS011;4086;54.412;9.980;2022-09-30T06:33:01;21.90;;;15.13;;
8086;SDS011;4086;54.412;9.980;2022-09-30T06:35:28;19.33;;;14.10;;
8086;SDS011;4086;54.412;9.980;2022-09-30T06:37:54;22.13;;;15.73;;
8086;SDS011;4086;54.412;9.980;2022-09-30T06:40:21;19.73;;;14.40;;
8086;SDS011;4086;54.412;9.980;2022-09-30T06:42:47;21.77;;;14.43;;
8086;SDS011;4086;54.412;9.980;2022-09-30T06:45:16;21.73;;;15.30;;
8086;SDS011;4086;54.412;9.980;2022-09-30T06:47:43;20.70;;;14.80;;
8086;SDS011;4086;54.412;9.980;2022-09-30T06:50:10;22.57;;;15.57;;
8086;SDS011;4086;54.412;9.980;2022-09-30T06:52:36;20.33;;;14.73;;
8086;SDS011;4086;54.412;9.980;2022-09-30T06:55:03;20.77;;;15.40;;
8086;SDS011;4086;54.412;9.980;2022-09-30T06:57:30;22.10;;;15.20;;
8086;SDS011;4086;54.412;9.980;2022-09-30T06:59:56;21.43;;;15.30;;
8086;SDS011;4086;54.412;9.980;2022-09-30T07:02:24;21.13;;;15.33;;
8086;SDS011;4086;54.412;9.980;2022-09-30T07:04:50;20.87;;;15.13;;
8086;SDS011;4086;54.412;9.980;2022-09-30T07:07:17;20.37;;;14.53;;
8086;SDS011;4086;54.412;9.980;2022-09-30T07:09:44;23.53;;;16.70;;
8086;SDS011;4086;54.412;9.980;2022-09-30T07:12:11;20.53;;;15.90;;
8086;SDS011;4086;54.412;9.980;2022-09-30T07:14:37;22.17;;;16.80;;
8086;SDS011;4086;54.412;9.980;2022-09-30T07:17:04;23.13;;;16.27;;
8086;SDS011;4086;54.412;9.980;2022-09-30T07:19:32;23.27;;;16.00;;
8086;SDS011;4086;54.412;9.980;2022-09-30T07:21:59;21.00;;;15.27;;
8086;SDS011;4086;54.412;9.980;2022-09-30T07:24:46;22.37;;;16.10;;
8086;SDS011;4086;54.412;9.980;2022-09-30T07:27:13;22.47;;;16.33;;
8086;SDS011;4086;54.412;9.980;2022-09-30T07:29:39;16.97;;;13.67;;
8086;SDS011;4086;54.412;9.980;2022-09-30T07:32:07;21.10;;;15.27;;
8086;SDS011;4086;54.412;9.980;2022-09-30T07:34:35;20.33;;;15.00;;
8086;SDS011;4086;54.412;9.980;2022-09-30T07:37:02;18.30;;;15.57;;
8086;SDS011;4086;54.412;9.980;2022-09-30T07:39:28;22.10;;;15.70;;
8086;SDS011;4086;54.412;9.980;2022-09-30T07:41:55;19.20;;;15.00;;
8086;SDS011;4086;54.412;9.980;2022-09-30T07:44:22;20.00;;;15.30;;
8086;SDS011;4086;54.412;9.980;2022-09-30T07:46:50;20.73;;;16.37;;
8086;SDS011;4086;54.412;9.980;2022-09-30T07:49:16;18.87;;;15.83;;
8086;SDS011;4086;54.412;9.980;2022-09-30T07:51:49;20.47;;;15.30;;
8086;SDS011;4086;54.412;9.980;2022-09-30T07:54:18;20.57;;;16.07;;
8086;SDS011;4086;54.412;9.980;2022-09-30T07:56:46;17.90;;;14.57;;
8086;SDS011;4086;54.412;9.980;2022-09-30T07:59:13;17.53;;;14.07;;
8086;SDS011;4086;54.412;9.980;2022-09-30T08:01:40;18.67;;;15.23;;
8086;SDS011;4086;54.412;9.980;2022-09-30T08:04:07;18.20;;;14.53;;
8086;SDS011;4086;54.412;9.980;2022-09-30T08:06:35;20.83;;;15.57;;
8086;SDS011;4086;54.412;9.980;2022-09-30T08:09:04;17.20;;;14.57;;
8086;SDS011;4086;54.412;9.980;2022-09-30T08:11:31;17.23;;;13.63;;
8086;SDS011;4086;54.412;9.980;2022-09-30T08:13:58;19.50;;;14.57;;
8086;SDS011;4086;54.412;9.980;2022-09-30T08:16:25;16.93;;;14.47;;
8086;SDS011;4086;54.412;9.980;2022-09-30T08:18:52;16.97;;;14.20;;
8086;SDS011;4086;54.412;9.980;2022-09-30T08:21:19;17.83;;;13.53;;
8086;SDS011;4086;54.412;9.980;2022-09-30T08:23:46;14.63;;;13.13;;
8086;SDS011;4086;54.412;9.980;2022-09-30T08:26:14;17.57;;;13.87;;
8086;SDS011;4086;54.412;9.980;2022-09-30T08:28:40;17.80;;;13.57;;
8086;SDS011;4086;54.412;9.980;2022-09-30T08:31:11;15.00;;;13.00;;
8086;SDS011;4086;54.412;9.980;2022-09-30T08:33:39;15.00;;;12.30;;
8086;SDS011;4086;54.412;9.980;2022-09-30T08:36:06;14.40;;;12.47;;
8086;SDS011;4086;54.412;9.980;2022-09-30T08:38:34;14.67;;;12.73;;
8086;SDS011;4086;54.412;9.980;2022-09-30T08:41:04;15.53;;;11.87;;
8086;SDS011;4086;54.412;9.980;2022-09-30T08:43:39;12.97;;;11.47;;
8086;SDS011;4086;54.412;9.980;2022-09-30T08:46:12;13.00;;;11.63;;
8086;SDS011;4086;54.412;9.980;2022-09-30T08:48:44;13.10;;;11.13;;
8086;SDS011;4086;54.412;9.980;2022-09-30T08:51:22;14.37;;;11.27;;
8086;SDS011;4086;54.412;9.980;2022-09-30T08:53:53;12.80;;;11.50;;
8086;SDS011;4086;54.412;9.980;2022-09-30T08:56:21;12.63;;;11.30;;
8086;SDS011;4086;54.412;9.980;2022-09-30T08:58:50;14.33;;;11.57;;
8086;SDS011;4086;54.412;9.980;2022-09-30T09:01:19;13.00;;;11.60;;
8086;SDS011;4086;54.412;9.980;2022-09-30T09:03:52;11.67;;;10.47;;
8086;SDS011;4086;54.412;9.980;2022-09-30T09:06:23;12.37;;;11.13;;
8086;SDS011;4086;54.412;9.980;2022-09-30T09:08:56;13.60;;;11.10;;
8086;SDS011;4086;54.412;9.980;2022-09-30T09:11:37;11.17;;;10.07;;
8086;SDS011;4086;54.412;9.980;2022-09-30T09:14:16;11.47;;;10.27;;
8086;SDS011;4086;54.412;9.980;2022-09-30T09:16:54;10.87;;;9.77;;
8086;SDS011;4086;54.412;9.980;2022-09-30T09:19:28;11.50;;;9.60;;
8086;SDS011;4086;54.412;9.980;2022-09-30T09:22:00;11.20;;;10.10;;
8086;SDS011;4086;54.412;9.980;2022-09-30T09:24:32;11.73;;;10.10;;
8086;SDS011;4086;54.412;9.980;2022-09-30T09:27:02;10.97;;;9.87;;
8086;SDS011;4086;54.412;9.980;2022-09-30T09:29:47;12.77;;;11.47;;
8086;SDS011;4086;54.412;9.980;2022-09-30T09:32:18;13.10;;;11.40;;
8086;SDS011;4086;54.412;9.980;2022-09-30T09:34:45;12.67;;;11.33;;
8086;SDS011;4086;54.412;9.980;2022-09-30T09:37:16;15.73;;;12.20;;
8086;SDS011;4086;54.412;9.980;2022-09-30T09:39:57;13.90;;;12.40;;
8086;SDS011;4086;54.412;9.980;2022-09-30T09:42:31;13.77;;;12.17;;
8086;SDS011;4086;54.412;9.980;2022-09-30T09:45:08;13.13;;;11.83;;
8086;SDS011;4086;54.412;9.980;2022-09-30T09:47:37;13.10;;;11.77;;
8086;SDS011;4086;54.412;9.980;2022-09-30T09:50:07;12.93;;;11.47;;
8086;SDS011;4086;54.412;9.980;2022-09-30T09:52:57;12.73;;;11.43;;
8086;SDS011;4086;54.412;9.980;2022-09-30T09:55:27;12.63;;;11.43;;
8086;SDS011;4086;54.412;9.980;2022-09-30T09:58:06;13.00;;;11.57;;
8086;SDS011;4086;54.412;9.980;2022-09-30T10:00:35;11.77;;;10.00;;
8086;SDS011;4086;54.412;9.980;2022-09-30T10:03:16;12.67;;;9.53;;
8086;SDS011;4086;54.412;9.980;2022-09-30T10:05:46;9.77;;;8.87;;
8086;SDS011;4086;54.412;9.980;2022-09-30T10:08:25;8.77;;;7.77;;
8086;SDS011;4086;54.412;9.980;2022-09-30T10:10:53;7.47;;;6.77;;
8086;SDS011;4086;54.412;9.980;2022-09-30T10:13:21;7.90;;;6.30;;
8086;SDS011;4086;54.412;9.980;2022-09-30T10:15:51;6.47;;;5.90;;
8086;SDS011;4086;54.412;9.980;2022-09-30T10:18:19;6.20;;;5.60;;
8086;SDS011;4086;54.412;9.980;2022-09-30T10:20:49;6.80;;;5.83;;
8086;SDS011;4086;54.412;9.980;2022-09-30T10:23:18;7.00;;;6.30;;
8086;SDS011;4086;54.412;9.980;2022-09-30T10:25:53;6.07;;;5.57;;
8086;SDS011;4086;54.412;9.980;2022-09-30T10:28:22;6.17;;;5.60;;
8086;SDS011;4086;54.412;9.980;2022-09-30T10:30:52;5.93;;;5.43;;
8086;SDS011;4086;54.412;9.980;2022-09-30T10:33:23;5.33;;;4.83;;
8086;SDS011;4086;54.412;9.980;2022-09-30T10:38:43;5.10;;;4.37;;
8086;SDS011;4086;54.412;9.980;2022-09-30T10:41:11;5.77;;;5.23;;
8086;SDS011;4086;54.412;9.980;2022-09-30T10:43:38;4.37;;;4.07;;
8086;SDS011;4086;54.412;9.980;2022-09-30T10:46:08;7.60;;;4.83;;
8086;SDS011;4086;54.412;9.980;2022-09-30T10:48:36;4.77;;;4.30;;
8086;SDS011;4086;54.412;9.980;2022-09-30T10:51:03;4.27;;;3.87;;
8086;SDS011;4086;54.412;9.980;2022-09-30T10:53:31;4.60;;;4.10;;
8086;SDS011;4086;54.412;9.980;2022-09-30T10:55:59;5.90;;;4.37;;
8086;SDS011;4086;54.412;9.980;2022-09-30T10:58:33;4.50;;;4.10;;
8086;SDS011;4086;54.412;9.980;2022-09-30T11:01:11;5.07;;;3.80;;
8086;SDS011;4086;54.412;9.980;2022-09-30T11:03:45;3.77;;;3.37;;
8086;SDS011;4086;54.412;9.980;2022-09-30T11:06:18;3.17;;;2.87;;
8086;SDS011;4086;54.412;9.980;2022-09-30T11:08:46;3.63;;;3.33;;
8086;SDS011;4086;54.412;9.980;2022-09-30T11:11:17;3.97;;;3.27;;
8086;SDS011;4086;54.412;9.980;2022-09-30T11:13:47;2.43;;;2.30;;
8086;SDS011;4086;54.412;9.980;2022-09-30T11:16:17;2.90;;;2.50;;
8086;SDS011;4086;54.412;9.980;2022-09-30T11:18:49;2.20;;;2.10;;
8086;SDS011;4086;54.412;9.980;2022-09-30T11:21:19;2.60;;;2.27;;
8086;SDS011;4086;54.412;9.980;2022-09-30T11:23:50;4.10;;;2.70;;
8086;SDS011;4086;54.412;9.980;2022-09-30T11:26:21;2.43;;;2.23;;
8086;SDS011;4086;54.412;9.980;2022-09-30T11:28:56;4.23;;;2.53;;
8086;SDS011;4086;54.412;9.980;2022-09-30T11:31:30;2.77;;;2.57;;
8086;SDS011;4086;54.412;9.980;2022-09-30T11:34:08;2.50;;;2.30;;
8086;SDS011;4086;54.412;9.980;2022-09-30T11:36:41;2.30;;;2.10;;
8086;SDS011;4086;54.412;9.980;2022-09-30T11:39:31;2.50;;;2.30;;
8086;SDS011;4086;54.412;9.980;2022-09-30T11:42:06;1.97;;;1.73;;
8086;SDS011;4086;54.412;9.980;2022-09-30T11:44:36;1.97;;;1.87;;
8086;SDS011;4086;54.412;9.980;2022-09-30T11:47:13;2.00;;;1.80;;
8086;SDS011;4086;54.412;9.980;2022-09-30T11:49:55;2.37;;;1.93;;
8086;SDS011;4086;54.412;9.980;2022-09-30T11:52:31;2.13;;;2.03;;
8086;SDS011;4086;54.412;9.980;2022-09-30T11:55:27;2.00;;;1.90;;
8086;SDS011;4086;54.412;9.980;2022-09-30T11:58:01;2.50;;;1.90;;
8086;SDS011;4086;54.412;9.980;2022-09-30T12:00:29;1.80;;;1.70;;
8086;SDS011;4086;54.412;9.980;2022-09-30T12:02:59;2.37;;;2.10;;
8086;SDS011;4086;54.412;9.980;2022-09-30T12:05:30;2.37;;;2.17;;
8086;SDS011;4086;54.412;9.980;2022-09-30T12:07:59;2.17;;;1.97;;
8086;SDS011;4086;54.412;9.980;2022-09-30T12:10:30;2.07;;;1.97;;
8086;SDS011;4086;54.412;9.980;2022-09-30T12:13:00;1.97;;;1.50;;
8086;SDS011;4086;54.412;9.980;2022-09-30T12:15:28;1.60;;;1.50;;
8086;SDS011;4086;54.412;9.980;2022-09-30T12:17:56;1.70;;;1.60;;
8086;SDS011;4086;54.412;9.980;2022-09-30T12:20:26;1.90;;;1.80;;
8086;SDS011;4086;54.412;9.980;2022-09-30T12:22:56;1.50;;;1.50;;
8086;SDS011;4086;54.412;9.980;2022-09-30T12:25:25;2.13;;;1.60;;
8086;SDS011;4086;54.412;9.980;2022-09-30T12:27:55;1.47;;;1.30;;
8086;SDS011;4086;54.412;9.980;2022-09-30T12:30:24;2.03;;;1.83;;
8086;SDS011;4086;54.412;9.980;2022-09-30T12:32:58;1.90;;;1.73;;
8086;SDS011;4086;54.412;9.980;2022-09-30T12:38:51;3.23;;;1.87;;
8086;SDS011;4086;54.412;9.980;2022-09-30T12:41:33;2.43;;;1.80;;
8086;SDS011;4086;54.412;9.980;2022-09-30T12:47:08;1.73;;;1.60;;
8086;SDS011;4086;54.412;9.980;2022-09-30T12:49:38;1.60;;;1.43;;
8086;SDS011;4086;54.412;9.980;2022-09-30T12:52:10;1.57;;;1.47;;
8086;SDS011;4086;54.412;9.980;2022-09-30T12:54:38;1.30;;;1.20;;
8086;SDS011;4086;54.412;9.980;2022-09-30T12:57:07;1.70;;;1.40;;
8086;SDS011;4086;54.412;9.980;2022-09-30T12:59:34;3.03;;;1.40;;
8086;SDS011;4086;54.412;9.980;2022-09-30T13:02:03;1.70;;;1.53;;
8086;SDS011;4086;54.412;9.980;2022-09-30T13:04:32;1.63;;;1.53;;
8086;SDS011;4086;54.412;9.980;2022-09-30T13:07:10;2.40;;;1.50;;
8086;SDS011;4086;54.412;9.980;2022-09-30T13:09:54;2.80;;;1.60;;
8086;SDS011;4086;54.412;9.980;2022-09-30T13:12:26;3.17;;;1.70;;
8086;SDS011;4086;54.412;9.980;2022-09-30T13:18:01;1.40;;;1.30;;
8086;SDS011;4086;54.412;9.980;2022-09-30T13:23:27;2.47;;;1.70;;
8086;SDS011;4086;54.412;9.980;2022-09-30T13:26:00;3.83;;;1.60;;
8086;SDS011;4086;54.412;9.980;2022-09-30T13:28:28;1.50;;;1.40;;
8086;SDS011;4086;54.412;9.980;2022-09-30T13:33:43;1.80;;;1.50;;
8086;SDS011;4086;54.412;9.980;2022-09-30T13:36:27;2.10;;;1.90;;
8086;SDS011;4086;54.412;9.980;2022-09-30T13:39:06;2.33;;;1.70;;
8086;SDS011;4086;54.412;9.980;2022-09-30T13:41:45;1.60;;;1.50;;
8086;SDS011;4086;54.412;9.980;2022-09-30T13:44:15;4.37;;;2.00;;
8086;SDS011;4086;54.412;9.980;2022-09-30T13:46:45;2.10;;;1.90;;
8086;SDS011;4086;54.412;9.980;2022-09-30T13:49:15;2.93;;;1.80;;
8086;SDS011;4086;54.412;9.980;2022-09-30T13:51:43;1.80;;;1.70;;
8086;SDS011;4086;54.412;9.980;2022-09-30T13:54:16;1.93;;;1.77;;
8086;SDS011;4086;54.412;9.980;2022-09-30T13:56:49;1.83;;;1.70;;
8086;SDS011;4086;54.412;9.980;2022-09-30T13:59:21;1.90;;;1.60;;
8086;SDS011;4086;54.412;9.980;2022-09-30T14:01:57;2.57;;;1.93;;
8086;SDS011;4086;54.412;9.980;2022-09-30T14:07:41;2.07;;;1.60;;
8086;SDS011;4086;54.412;9.980;2022-09-30T14:10:17;1.83;;;1.73;;
8086;SDS011;4086;54.412;9.980;2022-09-30T14:12:57;2.23;;;1.90;;
8086;SDS011;4086;54.412;9.980;2022-09-30T14:15:35;1.87;;;1.70;;
8086;SDS011;4086;54.412;9.980;2022-09-30T14:18:28;2.30;;;1.70;;
8086;SDS011;4086;54.412;9.980;2022-09-30T14:21:09;3.03;;;2.07;;
8086;SDS011;4086;54.412;9.980;2022-09-30T14:23:56;2.47;;;1.70;;
8086;SDS011;4086;54.412;9.980;2022-09-30T14:26:31;3.87;;;2.17;;
8086;SDS011;4086;54.412;9.980;2022-09-30T14:29:07;1.80;;;1.70;;
8086;SDS011;4086;54.412;9.980;2022-09-30T14:31:41;1.67;;;1.40;;
8086;SDS011;4086;54.412;9.980;2022-09-30T14:34:09;1.57;;;1.50;;
8086;SDS011;4086;54.412;9.980;2022-09-30T14:36:36;1.70;;;1.60;;
8086;SDS011;4086;54.412;9.980;2022-09-30T14:39:04;2.07;;;1.60;;
8086;SDS011;4086;54.412;9.980;2022-09-30T14:41:32;1.73;;;1.20;;
8086;SDS011;4086;54.412;9.980;2022-09-30T14:43:59;1.57;;;1.23;;
8086;SDS011;4086;54.412;9.980;2022-09-30T14:46:31;1.17;;;1.07;;
8086;SDS011;4086;54.412;9.980;2022-09-30T14:49:02;1.03;;;1.00;;
8086;SDS011;4086;54.412;9.980;2022-09-30T14:51:34;1.20;;;1.10;;
8086;SDS011;4086;54.412;9.980;2022-09-30T14:54:02;1.57;;;1.10;;
8086;SDS011;4086;54.412;9.980;2022-09-30T14:56:32;1.00;;;1.00;;
8086;SDS011;4086;54.412;9.980;2022-09-30T14:59:07;1.10;;;1.10;;
8086;SDS011;4086;54.412;9.980;2022-09-30T15:01:40;1.27;;;1.17;;
8086;SDS011;4086;54.412;9.980;2022-09-30T15:04:09;0.97;;;0.97;;
8086;SDS011;4086;54.412;9.980;2022-09-30T15:06:41;1.00;;;1.00;;
8086;SDS011;4086;54.412;9.980;2022-09-30T15:09:13;1.00;;;1.00;;
8086;SDS011;4086;54.412;9.980;2022-09-30T15:11:42;0.90;;;0.90;;
8086;SDS011;4086;54.412;9.980;2022-09-30T15:14:10;1.37;;;1.20;;
8086;SDS011;4086;54.412;9.980;2022-09-30T15:16:43;1.13;;;1.00;;
8086;SDS011;4086;54.412;9.980;2022-09-30T15:19:11;1.10;;;1.10;;
8086;SDS011;4086;54.412;9.980;2022-09-30T15:21:42;1.60;;;1.07;;
8086;SDS011;4086;54.412;9.980;2022-09-30T15:24:09;1.47;;;1.20;;
8086;SDS011;4086;54.412;9.980;2022-09-30T15:26:36;1.27;;;1.17;;
8086;SDS011;4086;54.412;9.980;2022-09-30T15:29:04;1.20;;;1.10;;
8086;SDS011;4086;54.412;9.980;2022-09-30T15:31:31;1.27;;;1.17;;
8086;SDS011;4086;54.412;9.980;2022-09-30T15:34:02;1.30;;;1.30;;
8086;SDS011;4086;54.412;9.980;2022-09-30T15:36:30;1.23;;;1.07;;
8086;SDS011;4086;54.412;9.980;2022-09-30T15:38:56;1.10;;;1.10;;
8086;SDS011;4086;54.412;9.980;2022-09-30T15:41:23;1.00;;;1.00;;
8086;SDS011;4086;54.412;9.980;2022-09-30T15:43:50;1.40;;;1.30;;
8086;SDS011;4086;54.412;9.980;2022-09-30T15:46:26;1.53;;;1.30;;
8086;SDS011;4086;54.412;9.980;2022-09-30T15:48:54;1.50;;;1.40;;
8086;SDS011;4086;54.412;9.980;2022-09-30T15:51:29;1.40;;;1.30;;